Time;durP1;ratioP1;P1;durP2;ratioP2;P2;SDS_P1;SDS_P2;PMS_P1;PMS_P2;Temp;Humidity;BMP_temperature;BMP_pressure;BME280_temperature;BME280_humidity;BME280_pressure;Samples;Min_cycle;Max_cycle;Signal;HPM_P1;HPM_P2
2023/10/05 00:02:20;;;;;;;12.73;3.05;;;;;;;;;;5088209;28;20446;-73
2023/10/05 00:04:47;;;;;;;16.60;3.55;;;;;;;;;;5090632;28;20048;-73
2023/10/05 00:07:19;;;;;;;12.18;3.40;;;;;;;;;;5104427;28;20040;-73
2023/10/05 00:09:46;;;;;;;9.40;3.10;;;;;;;;;;5087548;28;20043;-73
2023/10/05 00:12:18;;;;;;;13.43;3.55;;;;;;;;;;5094424;28;20092;-73
2023/10/05 00:14:48;;;;;;;12.20;3.20;;;;;;;;;;5083360;28;20453;-73
2023/10/05 00:17:14;;;;;;;13.85;3.60;;;;;;;;;;5093139;28;20064;-73
2023/10/05 00:19:40;;;;;;;13.50;3.60;;;;;;;;;;5095691;28;20055;-73
2023/10/05 00:22:07;;;;;;;16.67;4.30;;;;;;;;;;5107571;28;20040;-73
2023/10/05 00:24:37;;;;;;;15.55;3.92;;;;;;;;;;5089152;28;20051;-72
2023/10/05 00:27:04;;;;;;;13.38;3.75;;;;;;;;;;5110123;28;20596;-73
2023/10/05 00:30:06;;;;;;;15.02;3.38;;;;;;;;;;5082465;28;20043;-73
2023/10/05 00:32:25;;;;;;;9.63;3.50;;;;;;;;;;5088896;28;20440;-73
2023/10/05 00:34:55;;;;;;;11.98;3.67;;;;;;;;;;5110170;28;20047;-73
2023/10/05 00:37:22;;;;;;;10.10;3.65;;;;;;;;;;5108397;28;20055;-73
2023/10/05 00:39:50;;;;;;;9.00;3.35;;;;;;;;;;5093371;28;20048;-72
2023/10/05 00:42:16;;;;;;;9.52;3.50;;;;;;;;;;5095965;28;20043;-73
2023/10/05 00:44:43;;;;;;;11.88;3.88;;;;;;;;;;5087939;28;20048;-73
2023/10/05 00:47:12;;;;;;;11.45;3.20;;;;;;;;;;5086306;28;20051;-73
2023/10/05 00:49:48;;;;;;;14.27;4.05;;;;;;;;;;5095892;28;20040;-73
2023/10/05 00:52:15;;;;;;;13.18;3.90;;;;;;;;;;5092201;28;20066;-73
2023/10/05 00:54:51;;;;;;;14.25;3.55;;;;;;;;;;5087733;28;20047;-73
2023/10/05 00:57:23;;;;;;;12.75;4.18;;;;;;;;;;5105857;28;20047;-72
2023/10/05 00:59:57;;;;;;;11.35;3.15;;;;;;;;;;5092587;28;20040;-73
2023/10/05 01:02:25;;;;;;;12.02;3.85;;;;;;;;;;5093464;28;20043;-72
2023/10/05 01:05:01;;;;;;;12.60;4.40;;;;;;;;;;5110312;28;20043;-72
2023/10/05 01:14:58;;;;;;;9.43;3.15;;;;;;;;;;5093343;28;20067;-73
2023/10/05 01:17:28;;;;;;;14.60;4.05;;;;;;;;;;5074263;28;20044;-73
2023/10/05 01:20:07;;;;;;;15.15;4.50;;;;;;;;;;5104162;28;20040;-72
2023/10/05 01:22:35;;;;;;;15.32;4.38;;;;;;;;;;5091152;28;20490;-73
2023/10/05 01:25:04;;;;;;;16.90;4.75;;;;;;;;;;5089280;28;20127;-72
2023/10/05 01:27:31;;;;;;;13.70;3.90;;;;;;;;;;5090426;28;20051;-73
2023/10/05 01:29:57;;;;;;;13.98;4.50;;;;;;;;;;5091538;28;20043;-73
2023/10/05 01:32:24;;;;;;;14.88;4.13;;;;;;;;;;5086732;28;20051;-72
2023/10/05 01:34:52;;;;;;;14.75;4.60;;;;;;;;;;5090632;28;20047;-73
2023/10/05 01:37:22;;;;;;;16.55;4.18;;;;;;;;;;5085521;28;20039;-73
2023/10/05 01:39:48;;;;;;;12.95;4.32;;;;;;;;;;5106365;28;20515;-73
2023/10/05 01:42:16;;;;;;;20.20;4.43;;;;;;;;;;5093507;28;20050;-72
2023/10/05 01:44:47;;;;;;;13.43;4.47;;;;;;;;;;5087361;28;20071;-73
2023/10/05 01:47:17;;;;;;;13.32;3.67;;;;;;;;;;5108236;28;20093;-73
2023/10/05 01:49:44;;;;;;;12.45;3.53;;;;;;;;;;5110503;28;20054;-73
2023/10/05 01:52:10;;;;;;;12.35;3.80;;;;;;;;;;5105343;28;20489;-73
2023/10/05 01:54:37;;;;;;;13.18;4.20;;;;;;;;;;5108352;28;20046;-73
2023/10/05 01:57:09;;;;;;;14.15;4.22;;;;;;;;;;5082112;28;20126;-73
2023/10/05 01:59:37;;;;;;;20.45;4.80;;;;;;;;;;5105710;28;20735;-73
2023/10/05 02:02:07;;;;;;;19.75;4.45;;;;;;;;;;5085794;28;20078;-73
2023/10/05 02:04:38;;;;;;;18.13;4.13;;;;;;;;;;5085971;28;20113;-72
2023/10/05 02:07:04;;;;;;;18.35;4.63;;;;;;;;;;5111143;28;20043;-73
2023/10/05 02:09:31;;;;;;;17.52;4.60;;;;;;;;;;5090382;28;20138;-73
2023/10/05 02:12:02;;;;;;;15.50;4.63;;;;;;;;;;5093372;28;20056;-73
2023/10/05 02:14:30;;;;;;;15.38;4.28;;;;;;;;;;5094965;28;20043;-72
2023/10/05 02:16:57;;;;;;;16.55;4.53;;;;;;;;;;5092439;28;20085;-72
2023/10/05 02:19:23;;;;;;;14.23;4.15;;;;;;;;;;5111093;28;20036;-72
2023/10/05 02:21:54;;;;;;;10.98;3.47;;;;;;;;;;5087061;28;20044;-72
2023/10/05 02:24:25;;;;;;;15.13;4.20;;;;;;;;;;5094881;28;20052;-72
2023/10/05 02:29:23;;;;;;;12.50;4.07;;;;;;;;;;5104538;27;20055;-73
2023/10/05 02:34:21;;;;;;;16.70;4.30;;;;;;;;;;5091858;28;20491;-73
2023/10/05 02:36:47;;;;;;;11.18;3.80;;;;;;;;;;5110393;28;20078;-72
2023/10/05 02:39:14;;;;;;;16.70;4.00;;;;;;;;;;5114013;28;20090;-73
2023/10/05 02:41:40;;;;;;;17.90;4.25;;;;;;;;;;5107467;28;20514;-73
2023/10/05 02:44:17;;;;;;;13.32;4.35;;;;;;;;;;5110202;27;20090;-73
2023/10/05 02:46:47;;;;;;;14.35;4.80;;;;;;;;;;5089534;28;20410;-73
2023/10/05 02:49:15;;;;;;;14.45;4.30;;;;;;;;;;5089300;28;20048;-73
2023/10/05 02:51:43;;;;;;;14.18;4.28;;;;;;;;;;5098623;28;20549;-73
2023/10/05 02:54:10;;;;;;;14.65;4.68;;;;;;;;;;5094569;28;20418;-73
2023/10/05 02:56:39;;;;;;;12.55;4.32;;;;;;;;;;5094323;28;20059;-73
2023/10/05 02:59:14;;;;;;;15.55;4.45;;;;;;;;;;5093596;28;20043;-73
2023/10/05 03:01:40;;;;;;;12.82;4.22;;;;;;;;;;5091708;28;20047;-73
2023/10/05 03:06:39;;;;;;;15.10;4.68;;;;;;;;;;5093876;28;20093;-72
2023/10/05 03:09:09;;;;;;;12.38;3.95;;;;;;;;;;5084336;27;20375;-73
2023/10/05 03:11:36;;;;;;;17.98;4.72;;;;;;;;;;5089876;28;20055;-72
2023/10/05 03:14:02;;;;;;;15.80;4.85;;;;;;;;;;5118255;27;20047;-72
2023/10/05 03:16:29;;;;;;;19.35;5.00;;;;;;;;;;5096066;28;20168;-72
2023/10/05 03:19:00;;;;;;;20.63;4.88;;;;;;;;;;5091936;28;20094;-73
2023/10/05 03:21:26;;;;;;;14.02;4.57;;;;;;;;;;5095677;28;20042;-73
2023/10/05 03:23:53;;;;;;;16.60;5.07;;;;;;;;;;5094852;28;20474;-73
2023/10/05 03:26:20;;;;;;;15.68;4.47;;;;;;;;;;5100503;28;20039;-72
2023/10/05 03:28:46;;;;;;;13.13;4.53;;;;;;;;;;5095360;28;20126;-73
2023/10/05 03:31:14;;;;;;;16.60;5.43;;;;;;;;;;5094436;28;20398;-72
2023/10/05 03:33:41;;;;;;;15.57;4.25;;;;;;;;;;5092876;28;20047;-73
2023/10/05 03:36:13;;;;;;;18.33;4.35;;;;;;;;;;5096111;28;20441;-73
2023/10/05 03:38:40;;;;;;;10.50;3.60;;;;;;;;;;5087775;28;20081;-73
2023/10/05 03:41:08;;;;;;;15.20;4.65;;;;;;;;;;5089417;28;20063;-73
2023/10/05 03:43:34;;;;;;;16.00;4.32;;;;;;;;;;5095410;28;20050;-72
2023/10/05 03:46:09;;;;;;;15.05;4.53;;;;;;;;;;5090610;28;20054;-73
2023/10/05 03:48:38;;;;;;;17.27;5.10;;;;;;;;;;5079989;28;20048;-73
2023/10/05 03:51:08;;;;;;;15.95;4.22;;;;;;;;;;5094265;28;20093;-73
2023/10/05 03:53:34;;;;;;;19.42;4.82;;;;;;;;;;5089485;28;20088;-73
2023/10/05 03:56:01;;;;;;;14.80;4.03;;;;;;;;;;5094187;28;20126;-73
2023/10/05 03:58:27;;;;;;;17.40;4.95;;;;;;;;;;5090758;27;20053;-73
2023/10/05 04:00:53;;;;;;;15.93;5.03;;;;;;;;;;5091474;28;20055;-73
2023/10/05 04:03:23;;;;;;;16.27;5.13;;;;;;;;;;5092439;28;20032;-73
2023/10/05 04:05:50;;;;;;;21.73;5.47;;;;;;;;;;5094442;28;20044;-72
2023/10/05 04:08:17;;;;;;;13.77;4.45;;;;;;;;;;5089573;28;20052;-73
2023/10/05 04:10:46;;;;;;;17.80;4.95;;;;;;;;;;5091853;28;20051;-73
2023/10/05 04:13:14;;;;;;;18.88;4.53;;;;;;;;;;5111213;28;20127;-73
2023/10/05 04:15:40;;;;;;;12.80;4.20;;;;;;;;;;5086359;28;20448;-73
2023/10/05 04:18:15;;;;;;;14.38;4.78;;;;;;;;;;5094395;28;20051;-73
2023/10/05 04:20:44;;;;;;;16.75;4.47;;;;;;;;;;5093178;28;20043;-73
2023/10/05 04:23:14;;;;;;;14.88;4.38;;;;;;;;;;5109640;28;20040;-72
2023/10/05 04:25:40;;;;;;;18.65;4.30;;;;;;;;;;5095642;28;20043;-73
2023/10/05 04:28:07;;;;;;;14.98;4.25;;;;;;;;;;5088042;28;20055;-73
2023/10/05 04:30:33;;;;;;;14.00;4.18;;;;;;;;;;5088137;28;20487;-73
2023/10/05 04:33:01;;;;;;;11.73;4.05;;;;;;;;;;5088230;28;20047;-73
2023/10/05 04:35:28;;;;;;;19.95;4.75;;;;;;;;;;5112019;28;20406;-73
2023/10/05 04:37:59;;;;;;;14.85;4.50;;;;;;;;;;5109089;28;20402;-73
2023/10/05 04:40:25;;;;;;;16.40;4.57;;;;;;;;;;5092190;28;20056;-73
2023/10/05 04:42:51;;;;;;;16.33;4.65;;;;;;;;;;5093058;28;20132;-73
2023/10/05 04:45:20;;;;;;;15.55;4.50;;;;;;;;;;5091403;28;20096;-73
2023/10/05 04:47:48;;;;;;;12.13;4.20;;;;;;;;;;5087992;28;20092;-73
2023/10/05 04:50:15;;;;;;;17.25;5.07;;;;;;;;;;5109050;27;20075;-73
2023/10/05 04:52:45;;;;;;;18.27;4.78;;;;;;;;;;5091196;28;20413;-73
2023/10/05 04:56:00;;;;;;;14.85;4.63;;;;;;;;;;5101839;28;20050;-73
2023/10/05 05:06:00;;;;;;;23.85;6.18;;;;;;;;;;5108970;28;20044;-72
2023/10/05 05:08:27;;;;;;;14.75;5.10;;;;;;;;;;5111065;28;20083;-73
2023/10/05 05:10:53;;;;;;;21.90;4.65;;;;;;;;;;5091740;28;20164;-73
2023/10/05 05:13:22;;;;;;;17.50;4.15;;;;;;;;;;5111898;28;20077;-73
2023/10/05 05:15:48;;;;;;;15.30;4.20;;;;;;;;;;5093667;28;20122;-73
2023/10/05 05:18:14;;;;;;;17.88;4.05;;;;;;;;;;5079821;28;20483;-73
2023/10/05 05:20:44;;;;;;;17.88;4.47;;;;;;;;;;5091987;28;20050;-73
2023/10/05 05:23:13;;;;;;;20.77;4.38;;;;;;;;;;5093897;28;20474;-72
2023/10/05 05:25:39;;;;;;;16.75;5.03;;;;;;;;;;5094533;28;20063;-73
2023/10/05 05:28:05;;;;;;;17.15;5.47;;;;;;;;;;5110772;28;20047;-73
2023/10/05 05:30:36;;;;;;;16.63;4.53;;;;;;;;;;5092906;28;20065;-73
2023/10/05 05:33:09;;;;;;;15.75;4.63;;;;;;;;;;5089683;28;20052;-72
2023/10/05 05:35:36;;;;;;;18.10;4.75;;;;;;;;;;5107999;28;20052;-72
2023/10/05 05:38:02;;;;;;;22.17;5.72;;;;;;;;;;5108745;28;20040;-72
2023/10/05 05:40:29;;;;;;;18.30;5.50;;;;;;;;;;5078224;28;20047;-72
2023/10/05 05:42:56;;;;;;;20.27;5.15;;;;;;;;;;5088170;28;20043;-73
2023/10/05 05:45:22;;;;;;;18.25;5.60;;;;;;;;;;5088689;28;20055;-73
2023/10/05 05:47:48;;;;;;;16.20;4.15;;;;;;;;;;5088722;28;20138;-72
2023/10/05 05:50:18;;;;;;;16.70;5.18;;;;;;;;;;5086540;28;20368;-72
2023/10/05 05:52:47;;;;;;;16.05;4.90;;;;;;;;;;5107489;28;20444;-72
2023/10/05 05:55:23;;;;;;;15.43;4.53;;;;;;;;;;5089119;28;20044;-73
2023/10/05 05:57:52;;;;;;;23.73;5.50;;;;;;;;;;5109461;28;20048;-72
2023/10/05 06:00:18;;;;;;;18.70;5.03;;;;;;;;;;5094365;28;20052;-72
2023/10/05 06:02:46;;;;;;;15.93;4.88;;;;;;;;;;5091192;28;20151;-73
2023/10/05 06:05:12;;;;;;;17.05;4.38;;;;;;;;;;5091893;28;20048;-73
2023/10/05 06:07:41;;;;;;;18.52;4.78;;;;;;;;;;5090497;28;20044;-73
2023/10/05 06:10:14;;;;;;;17.40;4.93;;;;;;;;;;5084399;28;20098;-73
2023/10/05 06:12:41;;;;;;;19.90;4.93;;;;;;;;;;5079391;28;20492;-73
2023/10/05 06:15:09;;;;;;;18.92;5.07;;;;;;;;;;5081808;28;20048;-73
2023/10/05 06:17:36;;;;;;;21.95;5.13;;;;;;;;;;5086970;28;20123;-72
2023/10/05 06:20:14;;;;;;;16.83;4.47;;;;;;;;;;5084108;28;20483;-72
2023/10/05 06:22:44;;;;;;;20.75;4.78;;;;;;;;;;5084073;28;20093;-72
2023/10/05 06:25:20;;;;;;;14.30;4.88;;;;;;;;;;5084708;28;20044;-72
2023/10/05 06:27:47;;;;;;;16.42;4.95;;;;;;;;;;5086471;28;20127;-73
2023/10/05 06:30:13;;;;;;;16.50;4.68;;;;;;;;;;5078421;28;20489;-73
2023/10/05 06:32:39;;;;;;;17.13;5.28;;;;;;;;;;5088059;28;20128;-72
2023/10/05 06:35:09;;;;;;;17.85;4.57;;;;;;;;;;5085051;28;20058;-73
2023/10/05 06:37:37;;;;;;;16.15;4.93;;;;;;;;;;5081777;28;20067;-73
2023/10/05 06:40:09;;;;;;;19.08;5.47;;;;;;;;;;5080977;28;20407;-73
2023/10/05 06:42:37;;;;;;;16.77;5.72;;;;;;;;;;5081640;28;20051;-73
2023/10/05 06:45:07;;;;;;;14.90;4.55;;;;;;;;;;5088218;28;20044;-73
2023/10/05 06:47:37;;;;;;;19.98;5.78;;;;;;;;;;5086160;28;20120;-73
2023/10/05 06:50:10;;;;;;;17.85;5.07;;;;;;;;;;5092530;28;20036;-74
2023/10/05 06:52:42;;;;;;;15.65;4.80;;;;;;;;;;5091452;28;20062;-74
2023/10/05 06:55:11;;;;;;;15.77;4.97;;;;;;;;;;5091890;28;20040;-74
2023/10/05 06:57:38;;;;;;;23.90;4.85;;;;;;;;;;5081505;28;20518;-74
2023/10/05 07:00:11;;;;;;;19.08;4.55;;;;;;;;;;5088488;28;20036;-73
2023/10/05 07:02:37;;;;;;;17.25;4.85;;;;;;;;;;5090389;28;20096;-73
2023/10/05 07:05:05;;;;;;;15.32;4.95;;;;;;;;;;5088284;28;20043;-73
2023/10/05 07:07:32;;;;;;;15.70;4.82;;;;;;;;;;5095742;28;20507;-73
2023/10/05 07:10:03;;;;;;;17.77;4.47;;;;;;;;;;5091737;28;20082;-74
2023/10/05 07:12:30;;;;;;;19.73;5.55;;;;;;;;;;5092813;28;20526;-74
2023/10/05 07:14:56;;;;;;;13.50;4.32;;;;;;;;;;5092149;28;20036;-73
2023/10/05 07:17:22;;;;;;;21.13;4.97;;;;;;;;;;5084057;28;20044;-74
2023/10/05 07:19:49;;;;;;;19.23;5.00;;;;;;;;;;5093085;28;20047;-74
2023/10/05 07:22:17;;;;;;;14.82;4.20;;;;;;;;;;5092754;28;20055;-73
2023/10/05 07:24:43;;;;;;;19.00;5.05;;;;;;;;;;5095324;28;20043;-74
2023/10/05 07:27:09;;;;;;;15.88;4.95;;;;;;;;;;5083906;28;20055;-74
2023/10/05 07:29:36;;;;;;;18.77;4.93;;;;;;;;;;5091111;28;20044;-74
2023/10/05 07:32:02;;;;;;;16.42;4.88;;;;;;;;;;5090643;28;20495;-74
2023/10/05 07:34:30;;;;;;;15.88;4.50;;;;;;;;;;5087919;28;20044;-74
2023/10/05 07:36:57;;;;;;;19.50;4.97;;;;;;;;;;5092532;28;20047;-74
2023/10/05 07:39:23;;;;;;;23.67;5.30;;;;;;;;;;5090646;28;20051;-73
2023/10/05 07:41:52;;;;;;;23.48;6.00;;;;;;;;;;5086113;28;20050;-74
2023/10/05 07:44:18;;;;;;;20.50;5.78;;;;;;;;;;5086375;28;20044;-73
2023/10/05 07:46:44;;;;;;;14.05;4.53;;;;;;;;;;5086678;28;20036;-74
2023/10/05 07:49:10;;;;;;;16.48;5.32;;;;;;;;;;5078514;28;20040;-74
2023/10/05 07:51:36;;;;;;;20.23;5.80;;;;;;;;;;5091449;28;20050;-74
2023/10/05 07:54:03;;;;;;;20.38;5.95;;;;;;;;;;5077098;28;20040;-74
2023/10/05 07:56:32;;;;;;;12.43;4.28;;;;;;;;;;5090234;28;20127;-73
2023/10/05 07:59:01;;;;;;;18.38;5.40;;;;;;;;;;5096081;28;20047;-74
2023/10/05 08:01:27;;;;;;;15.60;5.47;;;;;;;;;;5085210;28;20040;-73
2023/10/05 08:03:53;;;;;;;19.20;5.25;;;;;;;;;;5088529;28;20066;-73
2023/10/05 08:06:19;;;;;;;18.42;5.05;;;;;;;;;;5092217;28;20983;-73
2023/10/05 08:08:45;;;;;;;19.95;5.43;;;;;;;;;;5083305;28;20052;-74
2023/10/05 08:11:15;;;;;;;18.50;5.15;;;;;;;;;;5081971;28;20051;-74
2023/10/05 08:13:43;;;;;;;17.50;5.32;;;;;;;;;;5085298;28;20126;-74
2023/10/05 08:16:09;;;;;;;16.67;6.20;;;;;;;;;;5087490;28;20075;-74
2023/10/05 08:18:36;;;;;;;18.95;5.57;;;;;;;;;;5078520;28;20123;-74
2023/10/05 08:21:04;;;;;;;19.98;5.07;;;;;;;;;;5091380;28;20040;-74
2023/10/05 08:23:30;;;;;;;21.13;5.93;;;;;;;;;;5089107;28;20078;-73
2023/10/05 08:25:57;;;;;;;18.30;5.80;;;;;;;;;;5087933;28;20049;-74
2023/10/05 08:28:24;;;;;;;14.73;4.53;;;;;;;;;;5083157;28;20051;-73
2023/10/05 08:31:06;;;;;;;17.98;5.38;;;;;;;;;;5081646;28;20044;-73
2023/10/05 08:33:35;;;;;;;23.23;6.85;;;;;;;;;;5086921;28;20036;-74
2023/10/05 08:36:11;;;;;;;16.63;5.72;;;;;;;;;;5090627;28;20051;-74
2023/10/05 08:38:37;;;;;;;18.00;5.63;;;;;;;;;;5080611;28;20365;-74
2023/10/05 08:41:11;;;;;;;18.08;5.38;;;;;;;;;;5090748;28;20040;-74
2023/10/05 08:43:46;;;;;;;18.50;5.50;;;;;;;;;;5086186;28;20043;-74
2023/10/05 08:46:14;;;;;;;13.60;5.47;;;;;;;;;;5082204;28;20044;-74
2023/10/05 08:48:41;;;;;;;16.83;5.28;;;;;;;;;;5081567;28;20081;-74
2023/10/05 08:51:11;;;;;;;19.25;4.85;;;;;;;;;;5088892;28;20043;-74
2023/10/05 08:53:44;;;;;;;16.08;4.22;;;;;;;;;;5087508;28;20411;-74
2023/10/05 08:56:13;;;;;;;;;;;;;;;;;;5088012;28;20044;-74
2023/10/05 08:58:41;;;;;;;17.58;4.97;;;;;;;;;;5085576;28;20375;-74
2023/10/05 09:01:37;;;;;;;24.05;6.30;;;;;;;;;;5087064;28;20043;-74
2023/10/05 09:04:11;;;;;;;16.02;4.85;;;;;;;;;;5070784;28;20060;-74
2023/10/05 09:06:56;;;;;;;15.50;4.18;;;;;;;;;;5088129;28;20040;-74
2023/10/05 09:09:54;;;;;;;15.02;3.78;;;;;;;;;;5084165;28;20085;-74
2023/10/05 09:12:47;;;;;;;13.95;4.40;;;;;;;;;;5082295;28;20101;-74
2023/10/05 09:15:47;;;;;;;15.60;4.07;;;;;;;;;;5079124;28;20056;-74
2023/10/05 09:20:35;;;;;;;16.65;4.88;;;;;;;;;;5087472;28;20410;-74
2023/10/05 09:23:05;;;;;;;13.80;4.00;;;;;;;;;;5089109;28;20047;-74
2023/10/05 09:25:38;;;;;;;11.20;4.18;;;;;;;;;;5085883;28;20488;-74
2023/10/05 09:28:16;;;;;;;18.33;4.85;;;;;;;;;;5076893;28;20047;-74
2023/10/05 09:30:55;;;;;;;22.13;4.68;;;;;;;;;;5088306;28;20059;-74
2023/10/05 09:33:34;;;;;;;20.40;5.43;;;;;;;;;;5087109;28;20137;-74
2023/10/05 09:36:16;;;;;;;15.77;4.43;;;;;;;;;;5084278;28;20083;-74
2023/10/05 09:38:46;;;;;;;17.98;4.90;;;;;;;;;;5089839;28;20052;-73
2023/10/05 09:41:15;;;;;;;19.20;4.47;;;;;;;;;;5088757;28;20513;-74
2023/10/05 09:43:44;;;;;;;21.70;5.07;;;;;;;;;;5090276;28;20047;-74
2023/10/05 09:46:10;;;;;;;21.38;5.38;;;;;;;;;;5088030;28;20411;-74
2023/10/05 09:48:40;;;;;;;17.15;4.72;;;;;;;;;;5087222;28;20257;-74
2023/10/05 09:51:09;;;;;;;15.35;4.35;;;;;;;;;;5089555;28;20048;-74
2023/10/05 09:53:35;;;;;;;11.10;4.13;;;;;;;;;;5089649;28;20518;-74
2023/10/05 09:56:03;;;;;;;14.40;4.43;;;;;;;;;;5083856;28;20383;-74
2023/10/05 09:58:29;;;;;;;11.23;3.80;;;;;;;;;;5080738;28;20437;-74
2023/10/05 10:00:56;;;;;;;17.25;4.75;;;;;;;;;;5085469;28;20048;-73
2023/10/05 10:03:22;;;;;;;15.45;4.53;;;;;;;;;;5089765;28;20043;-73
2023/10/05 10:05:51;;;;;;;17.58;4.45;;;;;;;;;;5088700;28;20105;-74
2023/10/05 10:08:51;;;;;;;13.98;4.50;;;;;;;;;;5100238;28;20502;-74
2023/10/05 10:11:20;;;;;;;16.17;4.68;;;;;;;;;;5079593;28;20050;-74
2023/10/05 10:14:00;;;;;;;14.10;3.92;;;;;;;;;;5087500;28;20157;-74
2023/10/05 10:16:27;;;;;;;23.23;5.38;;;;;;;;;;5087962;28;20384;-74
2023/10/05 10:18:57;;;;;;;15.57;4.82;;;;;;;;;;5089059;28;20052;-74
2023/10/05 10:21:33;;;;;;;12.65;4.68;;;;;;;;;;5080379;28;20039;-74
2023/10/05 10:24:06;;;;;;;14.23;5.00;;;;;;;;;;5090180;28;20040;-74
2023/10/05 10:26:45;;;;;;;20.40;4.70;;;;;;;;;;5088699;28;20040;-74
2023/10/05 10:29:12;;;;;;;15.13;4.43;;;;;;;;;;5084460;28;20048;-74
2023/10/05 10:31:42;;;;;;;16.20;5.00;;;;;;;;;;5113260;28;20040;-74
2023/10/05 10:34:28;;;;;;;18.25;5.40;;;;;;;;;;5084126;28;20368;-75
2023/10/05 10:36:57;;;;;;;19.55;4.85;;;;;;;;;;5090352;28;20119;-75
2023/10/05 10:39:31;;;;;;;17.30;5.18;;;;;;;;;;5088557;28;20042;-74
2023/10/05 10:42:04;;;;;;;21.10;4.72;;;;;;;;;;5091797;28;20294;-74
2023/10/05 10:44:46;;;;;;;;;;;;;;;;;;5092602;28;20104;-74
2023/10/05 10:47:14;;;;;;;14.18;5.07;;;;;;;;;;5089609;28;19923;-75
2023/10/05 10:49:40;;;;;;;15.55;4.85;;;;;;;;;;5092251;28;20097;-74
2023/10/05 10:52:12;;;;;;;12.60;4.88;;;;;;;;;;5087481;28;20051;-74
2023/10/05 10:54:43;;;;;;;14.13;4.80;;;;;;;;;;5094836;28;20490;-74
2023/10/05 10:57:16;;;;;;;15.73;4.68;;;;;;;;;;5094591;28;20116;-74
2023/10/05 10:59:42;;;;;;;18.13;4.95;;;;;;;;;;5086971;28;20045;-74
2023/10/05 11:02:12;;;;;;;19.50;5.60;;;;;;;;;;5094424;28;20063;-74
2023/10/05 11:04:39;;;;;;;14.20;4.53;;;;;;;;;;5094015;28;20052;-73
2023/10/05 11:07:05;;;;;;;14.18;4.53;;;;;;;;;;5090913;28;20499;-74
2023/10/05 11:09:48;;;;;;;14.68;4.75;;;;;;;;;;5094426;28;20048;-74
2023/10/05 11:12:21;;;;;;;10.98;4.43;;;;;;;;;;5088256;28;20047;-74
2023/10/05 11:14:47;;;;;;;17.73;5.03;;;;;;;;;;5090938;28;20047;-74
2023/10/05 11:17:30;;;;;;;14.45;4.70;;;;;;;;;;5092511;28;20047;-74
2023/10/05 11:19:58;;;;;;;12.27;4.07;;;;;;;;;;5091607;28;20048;-74
2023/10/05 11:22:24;;;;;;;13.95;4.80;;;;;;;;;;5105668;28;20049;-74
2023/10/05 11:25:14;;;;;;;16.38;4.95;;;;;;;;;;5111364;28;20047;-74
2023/10/05 11:27:41;;;;;;;14.15;4.22;;;;;;;;;;5087673;28;20052;-74
2023/10/05 11:30:07;;;;;;;11.38;4.03;;;;;;;;;;5095291;28;20040;-74
2023/10/05 11:32:35;;;;;;;14.60;4.30;;;;;;;;;;5093632;28;20479;-74
2023/10/05 11:35:05;;;;;;;15.15;4.50;;;;;;;;;;5096319;28;20514;-74
2023/10/05 11:37:32;;;;;;;15.18;4.22;;;;;;;;;;5104632;28;20040;-74
2023/10/05 11:40:03;;;;;;;17.60;4.50;;;;;;;;;;5078482;28;20054;-74
2023/10/05 11:42:35;;;;;;;11.70;4.20;;;;;;;;;;5088907;28;20043;-73
2023/10/05 11:45:04;;;;;;;12.63;4.25;;;;;;;;;;5110774;28;20051;-74
2023/10/05 11:47:35;;;;;;;16.70;4.22;;;;;;;;;;5090785;28;20433;-74
2023/10/05 11:50:08;;;;;;;14.68;4.90;;;;;;;;;;5094392;28;20048;-74
2023/10/05 11:52:38;;;;;;;13.35;4.75;;;;;;;;;;5093323;28;20067;-74
2023/10/05 11:55:07;;;;;;;11.40;4.60;;;;;;;;;;5114050;28;20052;-74
2023/10/05 11:57:33;;;;;;;9.30;3.80;;;;;;;;;;5091799;28;20143;-74
2023/10/05 12:00:00;;;;;;;10.10;3.88;;;;;;;;;;5080688;28;20048;-74
2023/10/05 12:02:26;;;;;;;12.15;4.32;;;;;;;;;;5079584;28;20059;-74
2023/10/05 12:04:52;;;;;;;12.02;4.30;;;;;;;;;;5078964;28;20059;-74
2023/10/05 12:07:18;;;;;;;11.75;3.75;;;;;;;;;;5078122;28;20060;-74
2023/10/05 12:09:44;;;;;;;11.20;3.90;;;;;;;;;;5085550;28;20048;-74
2023/10/05 12:12:13;;;;;;;14.20;4.03;;;;;;;;;;5080527;28;20058;-74
2023/10/05 12:14:41;;;;;;;11.30;3.72;;;;;;;;;;5089050;28;20131;-74
2023/10/05 12:17:07;;;;;;;14.93;3.85;;;;;;;;;;5082578;28;20062;-74
2023/10/05 12:19:33;;;;;;;12.48;4.05;;;;;;;;;;5086353;28;20101;-75
2023/10/05 12:22:03;;;;;;;14.32;3.97;;;;;;;;;;5084295;28;20319;-74
2023/10/05 12:24:30;;;;;;;13.18;4.43;;;;;;;;;;5075008;28;20055;-74
2023/10/05 12:26:59;;;;;;;10.23;3.75;;;;;;;;;;5075955;28;20178;-75
2023/10/05 12:29:26;;;;;;;11.20;4.00;;;;;;;;;;5100959;28;20494;-74
2023/10/05 12:31:52;;;;;;;12.15;4.00;;;;;;;;;;5112781;28;20078;-75
2023/10/05 12:34:23;;;;;;;10.70;4.00;;;;;;;;;;5085915;28;20079;-75
2023/10/05 12:36:49;;;;;;;8.77;3.70;;;;;;;;;;5074065;28;20044;-75
2023/10/05 12:39:17;;;;;;;9.93;3.88;;;;;;;;;;5104414;28;20091;-74
2023/10/05 12:41:43;;;;;;;10.95;3.33;;;;;;;;;;5084256;28;20402;-75
2023/10/05 12:44:13;;;;;;;12.73;3.70;;;;;;;;;;5090235;28;20380;-75
2023/10/05 12:46:46;;;;;;;12.32;3.53;;;;;;;;;;5092832;28;20320;-75
2023/10/05 12:49:14;;;;;;;13.90;4.10;;;;;;;;;;5093444;28;20051;-75
2023/10/05 12:51:41;;;;;;;10.10;3.85;;;;;;;;;;5083261;28;20047;-75
2023/10/05 12:54:18;;;;;;;11.77;3.42;;;;;;;;;;5093892;28;20391;-75
2023/10/05 12:56:49;;;;;;;9.73;3.70;;;;;;;;;;5107940;28;20479;-75
2023/10/05 12:59:15;;;;;;;11.73;3.42;;;;;;;;;;5098223;28;20058;-74
2023/10/05 13:01:41;;;;;;;10.75;3.20;;;;;;;;;;5094203;28;20073;-74
2023/10/05 13:04:13;;;;;;;9.05;4.18;;;;;;;;;;5105091;28;20093;-75
2023/10/05 13:06:40;;;;;;;12.95;3.85;;;;;;;;;;5076975;28;20050;-74
2023/10/05 13:09:11;;;;;;;15.23;3.97;;;;;;;;;;5092504;28;20549;-75
2023/10/05 13:11:39;;;;;;;8.15;3.58;;;;;;;;;;5091442;28;20079;-75
2023/10/05 13:14:09;;;;;;;12.63;3.85;;;;;;;;;;5089048;28;20085;-75
2023/10/05 13:16:36;;;;;;;11.45;3.25;;;;;;;;;;5103614;28;20047;-75
2023/10/05 13:19:06;;;;;;;11.57;3.50;;;;;;;;;;5080909;28;20048;-74
2023/10/05 13:21:35;;;;;;;13.57;3.78;;;;;;;;;;5078163;28;20063;-74
2023/10/05 13:24:01;;;;;;;9.13;3.22;;;;;;;;;;5074954;28;20086;-74
2023/10/05 13:26:28;;;;;;;9.27;3.33;;;;;;;;;;5102278;28;20043;-75
2023/10/05 13:28:59;;;;;;;12.27;3.55;;;;;;;;;;5092317;28;20043;-74
2023/10/05 13:31:28;;;;;;;10.88;3.58;;;;;;;;;;5091127;28;20044;-75
2023/10/05 13:33:54;;;;;;;10.10;3.30;;;;;;;;;;5093005;28;20061;-75
2023/10/05 13:36:21;;;;;;;10.98;3.72;;;;;;;;;;5110338;28;20047;-75
2023/10/05 13:38:48;;;;;;;12.10;3.70;;;;;;;;;;5090073;28;20097;-75
2023/10/05 13:41:14;;;;;;;9.35;3.28;;;;;;;;;;5093479;28;20039;-75
2023/10/05 13:43:40;;;;;;;8.05;3.10;;;;;;;;;;5100861;28;20066;-75
2023/10/05 13:46:15;;;;;;;9.30;3.22;;;;;;;;;;5079415;28;20040;-74
2023/10/05 13:48:45;;;;;;;7.57;3.40;;;;;;;;;;5111577;28;20036;-75
2023/10/05 13:51:15;;;;;;;6.43;2.85;;;;;;;;;;5085123;28;20672;-75
2023/10/05 13:53:44;;;;;;;6.65;3.25;;;;;;;;;;5090128;28;20088;-75
2023/10/05 13:56:11;;;;;;;9.23;3.50;;;;;;;;;;5097413;28;20499;-75
2023/10/05 13:58:40;;;;;;;8.68;3.05;;;;;;;;;;5097451;28;20055;-74
2023/10/05 14:01:10;;;;;;;8.82;3.55;;;;;;;;;;5096058;28;20047;-75
2023/10/05 14:03:36;;;;;;;12.27;3.40;;;;;;;;;;5098029;28;20055;-74
2023/10/05 14:06:04;;;;;;;8.10;3.10;;;;;;;;;;5096323;28;20063;-74
2023/10/05 14:08:31;;;;;;;7.82;3.35;;;;;;;;;;5104561;28;20405;-74
2023/10/05 14:11:01;;;;;;;11.18;3.25;;;;;;;;;;5085475;28;20063;-74
2023/10/05 14:13:28;;;;;;;9.68;3.42;;;;;;;;;;5094009;28;20054;-75
2023/10/05 14:15:54;;;;;;;9.88;3.08;;;;;;;;;;5085016;28;20169;-74
2023/10/05 14:18:22;;;;;;;11.20;3.35;;;;;;;;;;5096779;28;20447;-74
2023/10/05 14:20:51;;;;;;;11.73;3.28;;;;;;;;;;5100413;28;20044;-74
2023/10/05 14:23:20;;;;;;;10.25;3.65;;;;;;;;;;5108686;28;20476;-74
2023/10/05 14:25:46;;;;;;;10.32;3.47;;;;;;;;;;5089848;28;20130;-75
2023/10/05 14:28:17;;;;;;;11.45;3.55;;;;;;;;;;5095972;28;20043;-75
2023/10/05 14:30:44;;;;;;;9.93;3.60;;;;;;;;;;5095654;28;20380;-75
2023/10/05 14:33:16;;;;;;;8.35;2.80;;;;;;;;;;5105952;28;20085;-75
2023/10/05 14:35:42;;;;;;;11.00;3.38;;;;;;;;;;5107225;27;20047;-75
2023/10/05 14:38:10;;;;;;;8.27;3.60;;;;;;;;;;5097523;28;20044;-75
2023/10/05 14:40:37;;;;;;;9.85;3.15;;;;;;;;;;5090058;28;20055;-75
2023/10/05 14:43:05;;;;;;;9.15;3.38;;;;;;;;;;5094640;28;20596;-75
2023/10/05 14:45:31;;;;;;;8.60;2.92;;;;;;;;;;5096473;28;20046;-75
2023/10/05 14:48:02;;;;;;;10.75;3.20;;;;;;;;;;5093201;28;20036;-75
2023/10/05 14:50:28;;;;;;;11.68;3.00;;;;;;;;;;5093048;28;20043;-75
2023/10/05 14:52:55;;;;;;;8.68;3.03;;;;;;;;;;5106498;28;20129;-75
2023/10/05 14:55:21;;;;;;;6.35;3.00;;;;;;;;;;5091108;28;20032;-75
2023/10/05 14:57:47;;;;;;;9.32;2.85;;;;;;;;;;5082254;28;20491;-75
2023/10/05 15:00:16;;;;;;;10.60;3.20;;;;;;;;;;5096124;28;20044;-74
2023/10/05 15:02:43;;;;;;;9.05;3.10;;;;;;;;;;5089711;28;20044;-75
2023/10/05 15:05:15;;;;;;;5.47;3.08;;;;;;;;;;5096496;28;20623;-75
2023/10/05 15:07:42;;;;;;;8.85;3.20;;;;;;;;;;5012366;28;20552;-74
2023/10/05 15:10:19;;;;;;;7.57;3.28;;;;;;;;;;5051690;28;20462;-76